sensor_id;sensor_type;location;lat;lon;timestamp;P1;durP1;ratioP1;P2;durP2;ratioP2
29568;SDS011;16501;51.462;14.346;2024-02-23T00:00:34;1.40;;;1.30;;
29568;SDS011;16501;51.462;14.346;2024-02-23T00:02:59;1.35;;;1.25;;
29568;SDS011;16501;51.462;14.346;2024-02-23T00:05:24;1.42;;;1.20;;
29568;SDS011;16501;51.462;14.346;2024-02-23T00:07:49;1.48;;;1.38;;
29568;SDS011;16501;51.462;14.346;2024-02-23T00:10:15;2.70;;;1.60;;
29568;SDS011;16501;51.462;14.346;2024-02-23T00:12:40;1.20;;;1.15;;
29568;SDS011;16501;51.462;14.346;2024-02-23T00:15:05;1.70;;;1.50;;
29568;SDS011;16501;51.462;14.346;2024-02-23T00:17:32;2.13;;;1.50;;
29568;SDS011;16501;51.462;14.346;2024-02-23T00:19:57;1.52;;;1.42;;
29568;SDS011;16501;51.462;14.346;2024-02-23T00:22:22;1.40;;;1.30;;
29568;SDS011;16501;51.462;14.346;2024-02-23T00:24:47;1.63;;;1.50;;
29568;SDS011;16501;51.462;14.346;2024-02-23T00:27:12;1.42;;;1.33;;
29568;SDS011;16501;51.462;14.346;2024-02-23T00:29:37;1.57;;;1.40;;
29568;SDS011;16501;51.462;14.346;2024-02-23T00:32:03;2.88;;;1.55;;
29568;SDS011;16501;51.462;14.346;2024-02-23T00:34:28;2.42;;;1.42;;
29568;SDS011;16501;51.462;14.346;2024-02-23T00:36:55;2.10;;;1.40;;
29568;SDS011;16501;51.462;14.346;2024-02-23T00:39:20;1.58;;;1.48;;
29568;SDS011;16501;51.462;14.346;2024-02-23T00:41:45;1.95;;;1.65;;
29568;SDS011;16501;51.462;14.346;2024-02-23T00:44:11;1.90;;;1.30;;
29568;SDS011;16501;51.462;14.346;2024-02-23T00:46:36;1.55;;;1.10;;
29568;SDS011;16501;51.462;14.346;2024-02-23T00:49:02;1.73;;;1.27;;
29568;SDS011;16501;51.462;14.346;2024-02-23T00:51:27;1.42;;;1.33;;
29568;SDS011;16501;51.462;14.346;2024-02-23T00:53:53;1.63;;;1.52;;
29568;SDS011;16501;51.462;14.346;2024-02-23T00:56:18;2.15;;;1.23;;
29568;SDS011;16501;51.462;14.346;2024-02-23T00:58:43;1.33;;;1.10;;
29568;SDS011;16501;51.462;14.346;2024-02-23T01:01:08;0.90;;;0.90;;
29568;SDS011;16501;51.462;14.346;2024-02-23T01:03:33;0.95;;;0.95;;
29568;SDS011;16501;51.462;14.346;2024-02-23T01:05:58;1.50;;;1.30;;
29568;SDS011;16501;51.462;14.346;2024-02-23T01:08:23;1.30;;;1.20;;
29568;SDS011;16501;51.462;14.346;2024-02-23T01:10:48;1.30;;;1.20;;
29568;SDS011;16501;51.462;14.346;2024-02-23T01:13:14;0.93;;;0.90;;
29568;SDS011;16501;51.462;14.346;2024-02-23T01:15:39;1.67;;;1.13;;
29568;SDS011;16501;51.462;14.346;2024-02-23T01:18:04;2.05;;;1.48;;
29568;SDS011;16501;51.462;14.346;2024-02-23T01:20:32;1.00;;;1.00;;
29568;SDS011;16501;51.462;14.346;2024-02-23T01:22:58;1.25;;;1.17;;
29568;SDS011;16501;51.462;14.346;2024-02-23T01:25:23;1.27;;;1.20;;
29568;SDS011;16501;51.462;14.346;2024-02-23T01:27:48;1.50;;;1.40;;
29568;SDS011;16501;51.462;14.346;2024-02-23T01:30:13;2.38;;;2.17;;
29568;SDS011;16501;51.462;14.346;2024-02-23T01:32:39;1.40;;;1.20;;
29568;SDS011;16501;51.462;14.346;2024-02-23T01:35:05;1.60;;;1.50;;
29568;SDS011;16501;51.462;14.346;2024-02-23T01:37:30;1.50;;;1.40;;
29568;SDS011;16501;51.462;14.346;2024-02-23T01:39:55;1.50;;;1.40;;
29568;SDS011;16501;51.462;14.346;2024-02-23T01:42:21;1.40;;;1.30;;
29568;SDS011;16501;51.462;14.346;2024-02-23T01:44:46;1.60;;;1.50;;
29568;SDS011;16501;51.462;14.346;2024-02-23T01:47:11;2.43;;;1.27;;
29568;SDS011;16501;51.462;14.346;2024-02-23T01:49:36;1.80;;;1.70;;
29568;SDS011;16501;51.462;14.346;2024-02-23T01:52:01;1.48;;;1.38;;
29568;SDS011;16501;51.462;14.346;2024-02-23T01:54:27;1.95;;;1.40;;
29568;SDS011;16501;51.462;14.346;2024-02-23T01:56:53;1.60;;;1.50;;
29568;SDS011;16501;51.462;14.346;2024-02-23T01:59:19;1.73;;;1.63;;
29568;SDS011;16501;51.462;14.346;2024-02-23T02:01:44;3.22;;;1.48;;
29568;SDS011;16501;51.462;14.346;2024-02-23T02:04:09;3.00;;;2.00;;
29568;SDS011;16501;51.462;14.346;2024-02-23T02:06:34;1.77;;;1.67;;
29568;SDS011;16501;51.462;14.346;2024-02-23T02:08:59;1.92;;;1.80;;
29568;SDS011;16501;51.462;14.346;2024-02-23T02:11:25;1.77;;;1.67;;
29568;SDS011;16501;51.462;14.346;2024-02-23T02:13:50;2.38;;;2.17;;
29568;SDS011;16501;51.462;14.346;2024-02-23T02:16:15;2.20;;;2.10;;
29568;SDS011;16501;51.462;14.346;2024-02-23T02:18:40;2.08;;;1.98;;
29568;SDS011;16501;51.462;14.346;2024-02-23T02:21:05;2.35;;;1.95;;
29568;SDS011;16501;51.462;14.346;2024-02-23T02:23:30;2.42;;;2.33;;
29568;SDS011;16501;51.462;14.346;2024-02-23T02:25:56;2.53;;;2.42;;
29568;SDS011;16501;51.462;14.346;2024-02-23T02:28:21;2.00;;;1.90;;
29568;SDS011;16501;51.462;14.346;2024-02-23T02:30:47;2.85;;;1.75;;
29568;SDS011;16501;51.462;14.346;2024-02-23T02:33:12;2.75;;;1.60;;
29568;SDS011;16501;51.462;14.346;2024-02-23T02:35:37;1.83;;;1.73;;
29568;SDS011;16501;51.462;14.346;2024-02-23T02:38:02;1.00;;;0.85;;
29568;SDS011;16501;51.462;14.346;2024-02-23T02:40:27;5.63;;;1.00;;
29568;SDS011;16501;51.462;14.346;2024-02-23T02:42:52;2.50;;;0.90;;
29568;SDS011;16501;51.462;14.346;2024-02-23T02:45:18;1.90;;;0.70;;
29568;SDS011;16501;51.462;14.346;2024-02-23T02:47:43;1.70;;;1.25;;
29568;SDS011;16501;51.462;14.346;2024-02-23T02:50:08;1.23;;;1.23;;
29568;SDS011;16501;51.462;14.346;2024-02-23T02:52:34;1.00;;;1.00;;
29568;SDS011;16501;51.462;14.346;2024-02-23T02:54:59;0.80;;;0.80;;
29568;SDS011;16501;51.462;14.346;2024-02-23T02:57:24;2.53;;;2.03;;
29568;SDS011;16501;51.462;14.346;2024-02-23T02:59:49;0.80;;;0.80;;
29568;SDS011;16501;51.462;14.346;2024-02-23T03:02:15;1.40;;;1.40;;
29568;SDS011;16501;51.462;14.346;2024-02-23T03:04:46;4.30;;;1.40;;
29568;SDS011;16501;51.462;14.346;2024-02-23T03:07:11;2.00;;;0.93;;
29568;SDS011;16501;51.462;14.346;2024-02-23T03:09:36;1.25;;;1.15;;
29568;SDS011;16501;51.462;14.346;2024-02-23T03:12:01;0.93;;;0.93;;
29568;SDS011;16501;51.462;14.346;2024-02-23T03:14:27;1.10;;;1.00;;
29568;SDS011;16501;51.462;14.346;2024-02-23T03:16:52;3.40;;;1.10;;
29568;SDS011;16501;51.462;14.346;2024-02-23T03:19:17;0.75;;;0.75;;
29568;SDS011;16501;51.462;14.346;2024-02-23T03:21:47;0.80;;;0.80;;
29568;SDS011;16501;51.462;14.346;2024-02-23T03:24:12;1.80;;;1.00;;
29568;SDS011;16501;51.462;14.346;2024-02-23T03:26:37;0.98;;;0.88;;
29568;SDS011;16501;51.462;14.346;2024-02-23T03:29:02;0.55;;;0.55;;
29568;SDS011;16501;51.462;14.346;2024-02-23T03:31:27;0.90;;;0.77;;
29568;SDS011;16501;51.462;14.346;2024-02-23T03:33:52;0.90;;;0.90;;
29568;SDS011;16501;51.462;14.346;2024-02-23T03:36:17;0.80;;;0.80;;
29568;SDS011;16501;51.462;14.346;2024-02-23T03:38:43;0.90;;;0.90;;
29568;SDS011;16501;51.462;14.346;2024-02-23T03:41:08;3.67;;;0.70;;
29568;SDS011;16501;51.462;14.346;2024-02-23T03:43:33;2.27;;;0.73;;
29568;SDS011;16501;51.462;14.346;2024-02-23T03:45:58;1.85;;;1.75;;
29568;SDS011;16501;51.462;14.346;2024-02-23T03:48:24;0.90;;;0.90;;
29568;SDS011;16501;51.462;14.346;2024-02-23T03:50:49;1.40;;;0.95;;
29568;SDS011;16501;51.462;14.346;2024-02-23T03:53:14;1.52;;;0.65;;
29568;SDS011;16501;51.462;14.346;2024-02-23T03:55:39;0.98;;;0.77;;
29568;SDS011;16501;51.462;14.346;2024-02-23T03:58:04;1.20;;;0.80;;
29568;SDS011;16501;51.462;14.346;2024-02-23T04:00:29;2.88;;;0.82;;
29568;SDS011;16501;51.462;14.346;2024-02-23T04:02:54;0.77;;;0.70;;
29568;SDS011;16501;51.462;14.346;2024-02-23T04:05:19;1.58;;;0.80;;
29568;SDS011;16501;51.462;14.346;2024-02-23T04:07:44;2.15;;;0.73;;
29568;SDS011;16501;51.462;14.346;2024-02-23T04:10:10;1.10;;;0.80;;
29568;SDS011;16501;51.462;14.346;2024-02-23T04:12:35;1.38;;;0.80;;
29568;SDS011;16501;51.462;14.346;2024-02-23T04:15:00;1.15;;;0.82;;
29568;SDS011;16501;51.462;14.346;2024-02-23T04:17:25;0.95;;;0.95;;
29568;SDS011;16501;51.462;14.346;2024-02-23T04:19:50;1.58;;;0.68;;
29568;SDS011;16501;51.462;14.346;2024-02-23T04:22:15;1.33;;;0.82;;
29568;SDS011;16501;51.462;14.346;2024-02-23T04:24:41;1.13;;;0.70;;
29568;SDS011;16501;51.462;14.346;2024-02-23T04:27:06;3.38;;;3.17;;
29568;SDS011;16501;51.462;14.346;2024-02-23T04:29:32;3.65;;;1.75;;
29568;SDS011;16501;51.462;14.346;2024-02-23T04:31:57;1.38;;;0.98;;
29568;SDS011;16501;51.462;14.346;2024-02-23T04:34:22;3.80;;;3.47;;
29568;SDS011;16501;51.462;14.346;2024-02-23T04:36:48;0.90;;;0.90;;
29568;SDS011;16501;51.462;14.346;2024-02-23T04:39:13;1.25;;;0.50;;
29568;SDS011;16501;51.462;14.346;2024-02-23T04:41:38;0.85;;;0.60;;
29568;SDS011;16501;51.462;14.346;2024-02-23T04:44:03;0.60;;;0.47;;
29568;SDS011;16501;51.462;14.346;2024-02-23T04:46:28;1.13;;;1.13;;
29568;SDS011;16501;51.462;14.346;2024-02-23T04:48:55;1.17;;;0.60;;
29568;SDS011;16501;51.462;14.346;2024-02-23T04:51:20;1.75;;;0.75;;
29568;SDS011;16501;51.462;14.346;2024-02-23T04:53:47;2.58;;;0.70;;
29568;SDS011;16501;51.462;14.346;2024-02-23T04:56:12;2.53;;;0.68;;
29568;SDS011;16501;51.462;14.346;2024-02-23T04:58:37;0.70;;;0.70;;
29568;SDS011;16501;51.462;14.346;2024-02-23T05:01:03;1.40;;;0.68;;
29568;SDS011;16501;51.462;14.346;2024-02-23T05:03:28;2.00;;;0.70;;
29568;SDS011;16501;51.462;14.346;2024-02-23T05:05:53;0.88;;;0.88;;
29568;SDS011;16501;51.462;14.346;2024-02-23T05:08:22;2.60;;;0.60;;
29568;SDS011;16501;51.462;14.346;2024-02-23T05:10:49;2.55;;;0.77;;
29568;SDS011;16501;51.462;14.346;2024-02-23T05:13:14;3.22;;;0.90;;
29568;SDS011;16501;51.462;14.346;2024-02-23T05:15:39;0.80;;;0.80;;
29568;SDS011;16501;51.462;14.346;2024-02-23T05:18:04;0.65;;;0.65;;
29568;SDS011;16501;51.462;14.346;2024-02-23T05:20:30;3.30;;;1.00;;
29568;SDS011;16501;51.462;14.346;2024-02-23T05:22:55;1.45;;;0.75;;
29568;SDS011;16501;51.462;14.346;2024-02-23T05:25:20;0.82;;;0.82;;
29568;SDS011;16501;51.462;14.346;2024-02-23T05:27:46;3.22;;;0.70;;
29568;SDS011;16501;51.462;14.346;2024-02-23T05:30:11;0.80;;;0.68;;
29568;SDS011;16501;51.462;14.346;2024-02-23T05:32:36;0.75;;;0.57;;
29568;SDS011;16501;51.462;14.346;2024-02-23T05:35:01;1.17;;;0.73;;
29568;SDS011;16501;51.462;14.346;2024-02-23T05:37:28;5.15;;;0.70;;
29568;SDS011;16501;51.462;14.346;2024-02-23T05:39:53;0.90;;;0.70;;
29568;SDS011;16501;51.462;14.346;2024-02-23T05:42:18;4.25;;;0.75;;
29568;SDS011;16501;51.462;14.346;2024-02-23T05:44:44;0.93;;;0.60;;
29568;SDS011;16501;51.462;14.346;2024-02-23T05:47:09;1.70;;;1.10;;
29568;SDS011;16501;51.462;14.346;2024-02-23T05:49:35;1.58;;;0.70;;
29568;SDS011;16501;51.462;14.346;2024-02-23T05:52:00;1.52;;;0.60;;
29568;SDS011;16501;51.462;14.346;2024-02-23T05:54:25;0.82;;;0.65;;
29568;SDS011;16501;51.462;14.346;2024-02-23T05:56:50;1.25;;;0.70;;
29568;SDS011;16501;51.462;14.346;2024-02-23T05:59:15;5.03;;;0.60;;
29568;SDS011;16501;51.462;14.346;2024-02-23T06:01:40;1.42;;;1.30;;
29568;SDS011;16501;51.462;14.346;2024-02-23T06:04:06;0.50;;;0.50;;
29568;SDS011;16501;51.462;14.346;2024-02-23T06:06:31;0.95;;;0.80;;
29568;SDS011;16501;51.462;14.346;2024-02-23T06:08:56;0.60;;;0.55;;
29568;SDS011;16501;51.462;14.346;2024-02-23T06:11:21;2.13;;;0.60;;
29568;SDS011;16501;51.462;14.346;2024-02-23T06:13:47;1.02;;;0.68;;
29568;SDS011;16501;51.462;14.346;2024-02-23T06:16:12;1.52;;;0.50;;
29568;SDS011;16501;51.462;14.346;2024-02-23T06:18:38;11.63;;;2.67;;
29568;SDS011;16501;51.462;14.346;2024-02-23T06:21:15;8.13;;;0.80;;
29568;SDS011;16501;51.462;14.346;2024-02-23T06:23:41;0.95;;;0.57;;
29568;SDS011;16501;51.462;14.346;2024-02-23T06:26:06;0.50;;;0.50;;
29568;SDS011;16501;51.462;14.346;2024-02-23T06:28:32;0.70;;;0.65;;
29568;SDS011;16501;51.462;14.346;2024-02-23T06:30:57;0.60;;;0.57;;
29568;SDS011;16501;51.462;14.346;2024-02-23T06:33:23;2.85;;;0.73;;
29568;SDS011;16501;51.462;14.346;2024-02-23T06:35:48;3.45;;;1.77;;
29568;SDS011;16501;51.462;14.346;2024-02-23T06:38:13;8.57;;;1.90;;
29568;SDS011;16501;51.462;14.346;2024-02-23T06:40:38;3.78;;;2.25;;
29568;SDS011;16501;51.462;14.346;2024-02-23T06:43:04;4.57;;;3.47;;
29568;SDS011;16501;51.462;14.346;2024-02-23T06:45:29;14.05;;;9.35;;
29568;SDS011;16501;51.462;14.346;2024-02-23T06:47:54;4.22;;;2.58;;
29568;SDS011;16501;51.462;14.346;2024-02-23T06:50:19;1.10;;;1.00;;
29568;SDS011;16501;51.462;14.346;2024-02-23T06:52:44;0.80;;;0.60;;
29568;SDS011;16501;51.462;14.346;2024-02-23T06:55:10;1.67;;;0.80;;
29568;SDS011;16501;51.462;14.346;2024-02-23T06:57:35;1.08;;;0.70;;
29568;SDS011;16501;51.462;14.346;2024-02-23T07:00:01;3.97;;;0.60;;
29568;SDS011;16501;51.462;14.346;2024-02-23T07:02:27;2.72;;;1.88;;
29568;SDS011;16501;51.462;14.346;2024-02-23T07:04:52;1.02;;;0.80;;
29568;SDS011;16501;51.462;14.346;2024-02-23T07:07:19;1.55;;;0.75;;
29568;SDS011;16501;51.462;14.346;2024-02-23T07:09:44;2.05;;;1.17;;
29568;SDS011;16501;51.462;14.346;2024-02-23T07:12:10;2.72;;;0.55;;
29568;SDS011;16501;51.462;14.346;2024-02-23T07:14:38;1.92;;;0.90;;
29568;SDS011;16501;51.462;14.346;2024-02-23T07:17:03;2.92;;;0.77;;
29568;SDS011;16501;51.462;14.346;2024-02-23T07:19:28;2.05;;;0.77;;
29568;SDS011;16501;51.462;14.346;2024-02-23T07:21:54;67.53;;;32.22;;
29568;SDS011;16501;51.462;14.346;2024-02-23T07:24:19;41.47;;;20.93;;
29568;SDS011;16501;51.462;14.346;2024-02-23T07:26:44;93.90;;;42.60;;
29568;SDS011;16501;51.462;14.346;2024-02-23T07:29:09;33.63;;;15.10;;
29568;SDS011;16501;51.462;14.346;2024-02-23T07:31:35;59.95;;;27.17;;
29568;SDS011;16501;51.462;14.346;2024-02-23T07:34:00;58.00;;;28.58;;
29568;SDS011;16501;51.462;14.346;2024-02-23T07:36:25;35.67;;;19.85;;
29568;SDS011;16501;51.462;14.346;2024-02-23T07:38:50;29.17;;;17.30;;
29568;SDS011;16501;51.462;14.346;2024-02-23T07:41:15;24.73;;;15.93;;
29568;SDS011;16501;51.462;14.346;2024-02-23T07:43:42;10.05;;;7.97;;
29568;SDS011;16501;51.462;14.346;2024-02-23T07:46:07;11.25;;;10.13;;
29568;SDS011;16501;51.462;14.346;2024-02-23T07:48:36;2.78;;;2.58;;
29568;SDS011;16501;51.462;14.346;2024-02-23T07:51:02;1.45;;;1.35;;
29568;SDS011;16501;51.462;14.346;2024-02-23T07:53:27;3.00;;;0.85;;
29568;SDS011;16501;51.462;14.346;2024-02-23T07:55:53;1.10;;;0.90;;
29568;SDS011;16501;51.462;14.346;2024-02-23T07:58:18;2.83;;;0.75;;
29568;SDS011;16501;51.462;14.346;2024-02-23T08:00:44;1.52;;;0.82;;
29568;SDS011;16501;51.462;14.346;2024-02-23T08:03:09;3.60;;;0.82;;
29568;SDS011;16501;51.462;14.346;2024-02-23T08:05:35;2.42;;;0.60;;
29568;SDS011;16501;51.462;14.346;2024-02-23T08:08:01;1.55;;;0.70;;
29568;SDS011;16501;51.462;14.346;2024-02-23T08:10:26;1.70;;;0.65;;
29568;SDS011;16501;51.462;14.346;2024-02-23T08:12:51;4.13;;;0.52;;
29568;SDS011;16501;51.462;14.346;2024-02-23T08:15:16;1.95;;;0.68;;
29568;SDS011;16501;51.462;14.346;2024-02-23T08:17:41;1.02;;;0.75;;
29568;SDS011;16501;51.462;14.346;2024-02-23T08:20:07;1.52;;;0.60;;
29568;SDS011;16501;51.462;14.346;2024-02-23T08:22:33;1.60;;;0.80;;
29568;SDS011;16501;51.462;14.346;2024-02-23T08:24:58;0.52;;;0.45;;
29568;SDS011;16501;51.462;14.346;2024-02-23T08:27:23;2.33;;;0.90;;
29568;SDS011;16501;51.462;14.346;2024-02-23T08:29:48;0.70;;;0.70;;
29568;SDS011;16501;51.462;14.346;2024-02-23T08:32:13;2.03;;;0.90;;
29568;SDS011;16501;51.462;14.346;2024-02-23T08:34:39;3.40;;;0.70;;
29568;SDS011;16501;51.462;14.346;2024-02-23T08:37:04;0.50;;;0.50;;
29568;SDS011;16501;51.462;14.346;2024-02-23T08:39:29;3.78;;;1.05;;
29568;SDS011;16501;51.462;14.346;2024-02-23T08:41:54;1.47;;;0.90;;
29568;SDS011;16501;51.462;14.346;2024-02-23T08:44:19;2.45;;;0.73;;
29568;SDS011;16501;51.462;14.346;2024-02-23T08:46:45;3.72;;;0.70;;
29568;SDS011;16501;51.462;14.346;2024-02-23T08:49:10;0.95;;;0.55;;
29568;SDS011;16501;51.462;14.346;2024-02-23T08:51:35;3.50;;;0.90;;
29568;SDS011;16501;51.462;14.346;2024-02-23T08:54:00;1.15;;;0.70;;
29568;SDS011;16501;51.462;14.346;2024-02-23T08:56:30;1.52;;;0.80;;
29568;SDS011;16501;51.462;14.346;2024-02-23T08:58:56;4.35;;;0.88;;
29568;SDS011;16501;51.462;14.346;2024-02-23T09:01:21;3.35;;;0.90;;
29568;SDS011;16501;51.462;14.346;2024-02-23T09:03:46;6.47;;;0.80;;
29568;SDS011;16501;51.462;14.346;2024-02-23T09:06:12;1.48;;;0.80;;
29568;SDS011;16501;51.462;14.346;2024-02-23T09:08:37;1.27;;;0.80;;
29568;SDS011;16501;51.462;14.346;2024-02-23T09:11:02;1.15;;;0.70;;
29568;SDS011;16501;51.462;14.346;2024-02-23T09:13:27;4.82;;;2.75;;
29568;SDS011;16501;51.462;14.346;2024-02-23T09:15:54;2.58;;;0.90;;
29568;SDS011;16501;51.462;14.346;2024-02-23T09:18:19;1.80;;;0.73;;
29568;SDS011;16501;51.462;14.346;2024-02-23T09:20:45;1.95;;;0.70;;
29568;SDS011;16501;51.462;14.346;2024-02-23T09:23:10;2.43;;;1.00;;
29568;SDS011;16501;51.462;14.346;2024-02-23T09:25:36;1.27;;;0.80;;
29568;SDS011;16501;51.462;14.346;2024-02-23T09:28:01;0.70;;;0.68;;
29568;SDS011;16501;51.462;14.346;2024-02-23T09:30:27;0.95;;;0.70;;
29568;SDS011;16501;51.462;14.346;2024-02-23T09:32:52;1.50;;;0.75;;
29568;SDS011;16501;51.462;14.346;2024-02-23T09:35:18;2.13;;;1.13;;
29568;SDS011;16501;51.462;14.346;2024-02-23T09:37:44;1.98;;;1.10;;
29568;SDS011;16501;51.462;14.346;2024-02-23T09:40:09;2.03;;;1.27;;
29568;SDS011;16501;51.462;14.346;2024-02-23T09:42:34;2.05;;;1.20;;
29568;SDS011;16501;51.462;14.346;2024-02-23T09:45:00;1.23;;;1.10;;
29568;SDS011;16501;51.462;14.346;2024-02-23T09:47:29;2.03;;;0.93;;
29568;SDS011;16501;51.462;14.346;2024-02-23T09:49:54;2.35;;;1.15;;
29568;SDS011;16501;51.462;14.346;2024-02-23T09:52:20;1.08;;;0.98;;
29568;SDS011;16501;51.462;14.346;2024-02-23T09:54:46;1.33;;;1.10;;
29568;SDS011;16501;51.462;14.346;2024-02-23T09:57:11;1.43;;;0.87;;
29568;SDS011;16501;51.462;14.346;2024-02-23T09:59:36;1.60;;;0.85;;
29568;SDS011;16501;51.462;14.346;2024-02-23T10:02:02;0.95;;;0.80;;
29568;SDS011;16501;51.462;14.346;2024-02-23T10:04:31;0.80;;;0.80;;
29568;SDS011;16501;51.462;14.346;2024-02-23T10:06:56;3.03;;;1.20;;
29568;SDS011;16501;51.462;14.346;2024-02-23T10:09:21;0.73;;;0.70;;
29568;SDS011;16501;51.462;14.346;2024-02-23T10:11:51;1.98;;;0.80;;
29568;SDS011;16501;51.462;14.346;2024-02-23T10:14:16;1.95;;;0.70;;
29568;SDS011;16501;51.462;14.346;2024-02-23T10:16:42;3.58;;;0.88;;
29568;SDS011;16501;51.462;14.346;2024-02-23T10:19:07;3.65;;;2.45;;
29568;SDS011;16501;51.462;14.346;2024-02-23T10:21:32;1.75;;;1.10;;
29568;SDS011;16501;51.462;14.346;2024-02-23T10:23:57;1.67;;;0.90;;
29568;SDS011;16501;51.462;14.346;2024-02-23T10:26:22;3.67;;;1.17;;
29568;SDS011;16501;51.462;14.346;2024-02-23T10:28:47;1.17;;;1.07;;
29568;SDS011;16501;51.462;14.346;2024-02-23T10:31:13;1.73;;;1.10;;
29568;SDS011;16501;51.462;14.346;2024-02-23T10:33:38;2.13;;;0.82;;
29568;SDS011;16501;51.462;14.346;2024-02-23T10:36:03;2.58;;;0.90;;
29568;SDS011;16501;51.462;14.346;2024-02-23T10:38:30;8.60;;;0.90;;
29568;SDS011;16501;51.462;14.346;2024-02-23T10:40:57;6.38;;;1.33;;
29568;SDS011;16501;51.462;14.346;2024-02-23T10:43:25;10.50;;;1.58;;
29568;SDS011;16501;51.462;14.346;2024-02-23T10:48:20;30.13;;;7.07;;
29568;SDS011;16501;51.462;14.346;2024-02-23T10:50:45;14.17;;;5.33;;
29568;SDS011;16501;51.462;14.346;2024-02-23T10:53:10;57.90;;;11.15;;
29568;SDS011;16501;51.462;14.346;2024-02-23T10:55:36;16.40;;;5.38;;
29568;SDS011;16501;51.462;14.346;2024-02-23T10:58:02;146.75;;;23.33;;
29568;SDS011;16501;51.462;14.346;2024-02-23T11:00:28;3.75;;;2.15;;
29568;SDS011;16501;51.462;14.346;2024-02-23T11:02:53;20.48;;;9.50;;
29568;SDS011;16501;51.462;14.346;2024-02-23T11:05:20;11.77;;;4.28;;
29568;SDS011;16501;51.462;14.346;2024-02-23T11:07:48;20.92;;;2.85;;
29568;SDS011;16501;51.462;14.346;2024-02-23T11:10:14;2.63;;;1.17;;
29568;SDS011;16501;51.462;14.346;2024-02-23T11:12:39;18.50;;;2.25;;
29568;SDS011;16501;51.462;14.346;2024-02-23T11:15:04;30.63;;;5.15;;
29568;SDS011;16501;51.462;14.346;2024-02-23T11:17:30;1.98;;;1.50;;
29568;SDS011;16501;51.462;14.346;2024-02-23T11:19:56;15.75;;;1.92;;
29568;SDS011;16501;51.462;14.346;2024-02-23T11:22:25;1.73;;;1.00;;
29568;SDS011;16501;51.462;14.346;2024-02-23T11:24:51;1.20;;;1.10;;
29568;SDS011;16501;51.462;14.346;2024-02-23T11:27:16;3.92;;;1.88;;
29568;SDS011;16501;51.462;14.346;2024-02-23T11:29:47;3.10;;;1.42;;
29568;SDS011;16501;51.462;14.346;2024-02-23T11:32:14;3.30;;;1.90;;
29568;SDS011;16501;51.462;14.346;2024-02-23T11:34:39;4.93;;;1.50;;
29568;SDS011;16501;51.462;14.346;2024-02-23T11:37:10;6.75;;;2.88;;
29568;SDS011;16501;51.462;14.346;2024-02-23T11:39:38;2.63;;;2.22;;
29568;SDS011;16501;51.462;14.346;2024-02-23T11:42:05;2.38;;;1.85;;
29568;SDS011;16501;51.462;14.346;2024-02-23T11:44:30;2.42;;;1.27;;
29568;SDS011;16501;51.462;14.346;2024-02-23T11:46:55;3.05;;;1.55;;
29568;SDS011;16501;51.462;14.346;2024-02-23T11:49:20;1.20;;;0.98;;
29568;SDS011;16501;51.462;14.346;2024-02-23T11:51:51;6.45;;;3.25;;
29568;SDS011;16501;51.462;14.346;2024-02-23T11:54:18;2.75;;;1.20;;
29568;SDS011;16501;51.462;14.346;2024-02-23T11:56:43;3.03;;;1.10;;
29568;SDS011;16501;51.462;14.346;2024-02-23T11:59:08;3.33;;;1.60;;
29568;SDS011;16501;51.462;14.346;2024-02-23T12:01:34;1.80;;;1.10;;
29568;SDS011;16501;51.462;14.346;2024-02-23T12:03:59;3.10;;;1.55;;
29568;SDS011;16501;51.462;14.346;2024-02-23T12:06:24;4.10;;;0.98;;
29568;SDS011;16501;51.462;14.346;2024-02-23T12:08:52;2.45;;;1.10;;
29568;SDS011;16501;51.462;14.346;2024-02-23T12:11:17;1.00;;;0.93;;
29568;SDS011;16501;51.462;14.346;2024-02-23T12:13:42;1.93;;;1.10;;
29568;SDS011;16501;51.462;14.346;2024-02-23T12:19:13;0.95;;;0.77;;
29568;SDS011;16501;51.462;14.346;2024-02-23T12:21:39;5.30;;;1.10;;
29568;SDS011;16501;51.462;14.346;2024-02-23T12:24:05;1.95;;;1.00;;
29568;SDS011;16501;51.462;14.346;2024-02-23T12:26:33;2.38;;;0.75;;
29568;SDS011;16501;51.462;14.346;2024-02-23T12:29:09;3.77;;;0.90;;
29568;SDS011;16501;51.462;14.346;2024-02-23T12:31:34;2.97;;;1.40;;
29568;SDS011;16501;51.462;14.346;2024-02-23T12:33:59;3.67;;;1.00;;
29568;SDS011;16501;51.462;14.346;2024-02-23T12:36:25;4.85;;;1.95;;
29568;SDS011;16501;51.462;14.346;2024-02-23T12:38:50;3.92;;;2.20;;
29568;SDS011;16501;51.462;14.346;2024-02-23T12:41:15;3.42;;;1.55;;
29568;SDS011;16501;51.462;14.346;2024-02-23T12:43:40;4.53;;;1.10;;
29568;SDS011;16501;51.462;14.346;2024-02-23T12:46:05;2.97;;;1.00;;
29568;SDS011;16501;51.462;14.346;2024-02-23T12:48:33;4.63;;;1.25;;
29568;SDS011;16501;51.462;14.346;2024-02-23T12:50:58;5.28;;;1.05;;
29568;SDS011;16501;51.462;14.346;2024-02-23T12:53:36;1.55;;;0.90;;
29568;SDS011;16501;51.462;14.346;2024-02-23T12:56:03;2.35;;;0.88;;
29568;SDS011;16501;51.462;14.346;2024-02-23T12:58:28;3.97;;;1.33;;
29568;SDS011;16501;51.462;14.346;2024-02-23T13:00:53;1.65;;;1.23;;
29568;SDS011;16501;51.462;14.346;2024-02-23T13:03:19;2.28;;;1.95;;
29568;SDS011;16501;51.462;14.346;2024-02-23T13:05:44;2.72;;;1.67;;
29568;SDS011;16501;51.462;14.346;2024-02-23T13:08:09;2.25;;;0.60;;
29568;SDS011;16501;51.462;14.346;2024-02-23T13:10:34;3.95;;;1.30;;
29568;SDS011;16501;51.462;14.346;2024-02-23T13:13:00;3.80;;;1.90;;
29568;SDS011;16501;51.462;14.346;2024-02-23T13:15:25;1.92;;;1.52;;
29568;SDS011;16501;51.462;14.346;2024-02-23T13:17:50;3.50;;;2.20;;
29568;SDS011;16501;51.462;14.346;2024-02-23T13:20:15;1.83;;;1.07;;
29568;SDS011;16501;51.462;14.346;2024-02-23T13:22:40;1.35;;;1.25;;
29568;SDS011;16501;51.462;14.346;2024-02-23T13:25:06;12.57;;;1.33;;
29568;SDS011;16501;51.462;14.346;2024-02-23T13:27:31;1.30;;;0.90;;
29568;SDS011;16501;51.462;14.346;2024-02-23T13:29:56;1.17;;;0.90;;
29568;SDS011;16501;51.462;14.346;2024-02-23T13:32:21;4.78;;;1.83;;
29568;SDS011;16501;51.462;14.346;2024-02-23T13:34:46;2.10;;;0.90;;
29568;SDS011;16501;51.462;14.346;2024-02-23T13:37:11;4.20;;;2.50;;
29568;SDS011;16501;51.462;14.346;2024-02-23T13:39:37;4.00;;;1.40;;
29568;SDS011;16501;51.462;14.346;2024-02-23T13:42:02;3.57;;;2.90;;
29568;SDS011;16501;51.462;14.346;2024-02-23T13:44:27;7.30;;;4.43;;
29568;SDS011;16501;51.462;14.346;2024-02-23T13:46:52;4.50;;;3.10;;
29568;SDS011;16501;51.462;14.346;2024-02-23T13:49:18;2.92;;;2.00;;
29568;SDS011;16501;51.462;14.346;2024-02-23T13:51:43;3.53;;;1.80;;
29568;SDS011;16501;51.462;14.346;2024-02-23T13:54:08;4.47;;;2.08;;
29568;SDS011;16501;51.462;14.346;2024-02-23T13:56:33;3.10;;;2.13;;
29568;SDS011;16501;51.462;14.346;2024-02-23T13:58:58;1.53;;;1.27;;
29568;SDS011;16501;51.462;14.346;2024-02-23T14:01:23;9.20;;;1.60;;
29568;SDS011;16501;51.462;14.346;2024-02-23T14:03:49;2.45;;;1.52;;
29568;SDS011;16501;51.462;14.346;2024-02-23T14:06:14;3.13;;;1.67;;
29568;SDS011;16501;51.462;14.346;2024-02-23T14:08:40;3.20;;;1.25;;
29568;SDS011;16501;51.462;14.346;2024-02-23T14:11:05;3.55;;;2.15;;
29568;SDS011;16501;51.462;14.346;2024-02-23T14:13:31;6.07;;;2.55;;
29568;SDS011;16501;51.462;14.346;2024-02-23T14:15:56;2.67;;;1.42;;
29568;SDS011;16501;51.462;14.346;2024-02-23T14:18:21;4.00;;;2.30;;
29568;SDS011;16501;51.462;14.346;2024-02-23T14:20:46;3.05;;;1.67;;
29568;SDS011;16501;51.462;14.346;2024-02-23T14:23:12;4.93;;;2.17;;
29568;SDS011;16501;51.462;14.346;2024-02-23T14:25:37;4.43;;;2.45;;
29568;SDS011;16501;51.462;14.346;2024-02-23T14:28:02;2.42;;;1.85;;